Terminal Aerodrome Forecast
Issued by NWS Wakefield, VA

Home | Current Version | Previous Version | Text Only | Print | Product List | Glossary On
Versions: 1 2 3 4 5 6 7 8 9 10 11 12 13 14 15 16 17 18 19 20 21 22 23 24
000
FTUS41 KAKQ 251100
TAFRIC
TAF
KRIC 251125Z 2512/2612 28010KT P6SM FEW025 SCT050 BKN120
     FM251500 29009G18KT P6SM SCT050 SCT120
     FM251800 29007KT P6SM SKC=

USA.gov is the U.S. government's official web portal to all federal, state and local government web resources and services.